createdAt,value
2022-11-12T00:04:39.056Z,95042.63
2022-11-12T00:09:45.776Z,95034.83
2022-11-12T00:14:52.527Z,95032.43
2022-11-12T00:19:59.280Z,95020.80
2022-11-12T00:25:06.707Z,95019.11
2022-11-12T00:30:14.048Z,95011.61
2022-11-12T00:35:21.232Z,95019.09
2022-11-12T00:40:28.732Z,95008.50
2022-11-12T00:45:35.643Z,95007.66
2022-11-12T00:50:42.643Z,95004.27
2022-11-12T00:55:49.253Z,94988.73
2022-11-12T01:00:56.293Z,94994.05
2022-11-12T01:06:13.394Z,94986.23
2022-11-12T01:11:30.519Z,94987.17
2022-11-12T01:16:43.567Z,94979.09
2022-11-12T01:21:50.086Z,94972.81
2022-11-12T01:26:56.751Z,94973.48
2022-11-12T01:32:03.859Z,94967.94
2022-11-12T01:37:10.536Z,94964.02
2022-11-12T01:42:17.525Z,94950.34
2022-11-12T01:47:28.691Z,94962.22
2022-11-12T01:52:42.908Z,94953.94
2022-11-12T01:57:59.915Z,94948.83
2022-11-12T02:03:12.050Z,94952.27
2022-11-12T02:08:19.692Z,94952.30
2022-11-12T02:13:44.334Z,94953.55
2022-11-12T02:18:51.064Z,94949.11
2022-11-12T02:24:17.059Z,94942.20
2022-11-12T02:29:24.767Z,94937.08
2022-11-12T02:34:31.430Z,94925.58
2022-11-12T02:39:38.104Z,94928.97
2022-11-12T02:44:45.078Z,94920.05
2022-11-12T02:49:51.767Z,94922.56
2022-11-12T02:54:58.481Z,94919.41
2022-11-12T03:00:11.425Z,94905.00
2022-11-12T03:05:18.226Z,94896.83
2022-11-12T03:10:25.160Z,94901.42
2022-11-12T03:15:32.363Z,94916.59
2022-11-12T03:20:39.080Z,94914.62
2022-11-12T03:25:45.916Z,94907.98
2022-11-12T03:30:52.668Z,94914.59
2022-11-12T03:35:59.359Z,94918.85
2022-11-12T03:41:06.159Z,94936.52
2022-11-12T03:46:12.862Z,94938.53
2022-11-12T03:51:21.106Z,94948.14
2022-11-12T03:56:27.821Z,94947.00
2022-11-12T04:01:35.926Z,94935.17
2022-11-12T04:07:00.292Z,94932.06
2022-11-12T04:12:08.831Z,94932.71
2022-11-12T04:17:33.434Z,94930.30
2022-11-12T04:22:40.334Z,94929.94
2022-11-12T04:27:47.143Z,94918.09
2022-11-12T04:32:57.238Z,94919.45
2022-11-12T04:38:04.370Z,94912.53
2022-11-12T04:43:33.398Z,94920.25
2022-11-12T04:48:40.122Z,94922.33
2022-11-12T04:53:47.090Z,94921.55
2022-11-12T04:58:53.948Z,94917.44
2022-11-12T05:04:00.766Z,94906.69
2022-11-12T05:09:07.505Z,94903.45
2022-11-12T05:14:14.255Z,94898.28
2022-11-12T05:19:21.621Z,94901.55
2022-11-12T05:24:41.674Z,94904.63
2022-11-12T05:29:37.569Z,94900.91
2022-11-12T05:34:44.451Z,94894.70
2022-11-12T05:39:51.285Z,94888.02
2022-11-12T05:44:58.452Z,94886.73
2022-11-12T05:50:05.505Z,94891.66
2022-11-12T05:55:12.332Z,94883.47
2022-11-12T06:00:19.297Z,94894.75
2022-11-12T06:05:26.088Z,94898.72
2022-11-12T06:10:33.536Z,94909.09
2022-11-12T06:15:40.868Z,94900.42
2022-11-12T06:20:49.482Z,94906.48
2022-11-12T06:25:56.604Z,94906.80
2022-11-12T06:31:03.367Z,94908.48
2022-11-12T06:36:11.523Z,94912.95
2022-11-12T06:41:20.366Z,94918.62
2022-11-12T06:46:27.157Z,94927.16
2022-11-12T06:51:34.446Z,94924.59
2022-11-12T06:56:41.246Z,94920.62
2022-11-12T07:01:48.247Z,94929.30
2022-11-12T07:06:55.113Z,94928.88
2022-11-12T07:12:01.951Z,94933.10
2022-11-12T07:17:08.963Z,94931.14
2022-11-12T07:22:15.763Z,94925.51
2022-11-12T07:27:22.827Z,94931.82
2022-11-12T07:32:30.171Z,94926.22
2022-11-12T07:37:38.223Z,94928.61
2022-11-12T07:42:45.169Z,94915.82
2022-11-12T07:47:52.508Z,94908.77
2022-11-12T07:53:02.248Z,94914.84
2022-11-12T07:58:09.372Z,94914.63
2022-11-12T08:03:16.256Z,94905.59
2022-11-12T08:08:23.248Z,94906.67
2022-11-12T08:13:29.989Z,94903.09
2022-11-12T08:18:36.693Z,94898.64
2022-11-12T08:23:43.649Z,94894.94
2022-11-12T08:28:50.651Z,94908.94
2022-11-12T08:33:57.452Z,94909.74
2022-11-12T08:39:04.385Z,94909.95
2022-11-12T08:44:11.041Z,94918.58
2022-11-12T08:49:17.744Z,94923.97
2022-11-12T08:54:25.014Z,94927.21
2022-11-12T08:59:31.588Z,94928.38
2022-11-12T09:04:38.274Z,94934.13
2022-11-12T09:09:45.028Z,94949.63
2022-11-12T09:14:56.120Z,94958.95
2022-11-12T09:20:00.308Z,94960.75
2022-11-12T09:25:07.997Z,94956.05
2022-11-12T09:30:15.407Z,94961.13
2022-11-12T09:35:23.017Z,94964.54
2022-11-12T09:40:46.042Z,94966.15
2022-11-12T09:46:21.548Z,94975.68
2022-11-12T09:51:19.091Z,94974.19
2022-11-12T09:56:29.959Z,94965.56
2022-11-12T10:02:01.899Z,94972.16
2022-11-12T10:07:40.867Z,94970.75
2022-11-12T10:13:27.995Z,94976.61
2022-11-12T10:19:19.499Z,94967.03
2022-11-12T10:24:28.049Z,94962.53
2022-11-12T10:29:45.318Z,94951.64
2022-11-12T10:34:52.387Z,94946.48
2022-11-12T10:39:59.072Z,94945.92
2022-11-12T10:45:25.868Z,94934.91
2022-11-12T10:50:40.475Z,94934.33
2022-11-12T10:56:01.125Z,94931.02
2022-11-12T11:01:17.958Z,94926.31
2022-11-12T11:06:28.066Z,94915.81
2022-11-12T11:11:35.773Z,94902.50
2022-11-12T11:16:55.051Z,94900.55
2022-11-12T11:22:18.257Z,94898.99
2022-11-12T11:27:35.565Z,94887.93
2022-11-12T11:33:07.687Z,94880.19
2022-11-12T11:38:44.812Z,94878.92
2022-11-12T11:44:29.295Z,94864.34
2022-11-12T11:49:55.627Z,94864.34
2022-11-12T11:55:21.555Z,94866.52
2022-11-12T12:00:48.035Z,94865.76
2022-11-12T12:06:28.416Z,94850.83
2022-11-12T12:12:02.252Z,94846.84
2022-11-12T12:17:39.156Z,94850.53
2022-11-12T12:23:05.056Z,94851.39
2022-11-12T12:28:43.086Z,94845.46
2022-11-12T12:33:59.911Z,94849.58
2022-11-12T12:39:47.651Z,94846.98
2022-11-12T12:45:08.216Z,94857.03
2022-11-12T12:50:17.778Z,94854.67
2022-11-12T12:55:46.027Z,94842.70
2022-11-12T13:01:13.440Z,94844.30
2022-11-12T13:06:30.150Z,94836.30
2022-11-12T13:12:07.176Z,94847.80
2022-11-12T13:17:15.427Z,94853.00
2022-11-12T13:22:29.584Z,94854.30
2022-11-12T13:27:49.881Z,94863.23
2022-11-12T13:32:59.304Z,94857.67
2022-11-12T13:38:13.392Z,94854.23
2022-11-12T13:43:39.018Z,94858.97
2022-11-12T13:49:10.413Z,94863.45
2022-11-12T13:54:38.081Z,94876.16
2022-11-12T13:59:44.786Z,94876.64
2022-11-12T14:04:52.582Z,94881.25
2022-11-12T14:10:21.522Z,94872.42
2022-11-12T14:15:32.815Z,94874.36
2022-11-12T14:20:41.797Z,94876.31
2022-11-12T14:25:55.245Z,94886.16
2022-11-12T14:31:04.918Z,94898.58
2022-11-12T14:36:19.560Z,94892.61
2022-11-12T14:41:36.558Z,94889.61
2022-11-12T14:46:56.331Z,94885.00
2022-11-12T14:52:10.636Z,94883.61
2022-11-12T14:57:21.923Z,94886.53
2022-11-12T15:02:53.884Z,94888.24
2022-11-12T15:08:09.984Z,94889.50
2022-11-12T15:13:27.616Z,94898.05
2022-11-12T15:18:36.268Z,94885.80
2022-11-12T15:23:53.345Z,94882.78
2022-11-12T15:29:13.144Z,94884.98
2022-11-12T15:34:46.673Z,94888.66
2022-11-12T15:40:05.422Z,94879.61
2022-11-12T15:45:21.884Z,94880.27
2022-11-12T15:50:28.873Z,94873.50
2022-11-12T15:55:38.410Z,94870.67
2022-11-12T16:00:45.519Z,94868.48
2022-11-12T16:05:52.678Z,94859.69
2022-11-12T16:10:59.594Z,94863.81
2022-11-12T16:16:08.948Z,94868.16
2022-11-12T16:21:20.651Z,94861.77
2022-11-12T16:26:28.574Z,94865.80
2022-11-12T16:31:35.573Z,94872.23
2022-11-12T16:36:43.579Z,94873.64
2022-11-12T16:41:50.402Z,94872.84
2022-11-12T16:46:57.258Z,94882.58
2022-11-12T16:52:04.530Z,94887.80
2022-11-12T16:57:13.490Z,94892.30
2022-11-12T17:02:20.558Z,94881.64
2022-11-12T17:07:27.423Z,94883.77
2022-11-12T17:12:34.313Z,94887.50
2022-11-12T17:17:41.524Z,94884.67
2022-11-12T17:22:48.721Z,94890.39
2022-11-12T17:27:55.831Z,94893.21
2022-11-12T17:33:02.925Z,94894.59
2022-11-12T17:38:09.682Z,94901.17
2022-11-12T17:43:16.892Z,94901.86
2022-11-12T17:48:25.361Z,94898.81
2022-11-12T17:53:32.847Z,94897.41
2022-11-12T17:58:39.711Z,94898.47
2022-11-12T18:03:50.816Z,94896.84
2022-11-12T18:09:00.044Z,94898.80
2022-11-12T18:14:11.350Z,94894.58
2022-11-12T18:19:19.309Z,94889.94
2022-11-12T18:24:26.190Z,94896.33
2022-11-12T18:29:33.130Z,94889.77
2022-11-12T18:34:41.733Z,94893.84
2022-11-12T18:39:48.464Z,94891.55
2022-11-12T18:44:55.471Z,94893.28
2022-11-12T18:50:07.342Z,94895.16
2022-11-12T18:55:11.412Z,94886.84
2022-11-12T19:00:18.718Z,94888.63
2022-11-12T19:05:25.483Z,94883.96
2022-11-12T19:10:32.424Z,94888.80
2022-11-12T19:15:39.119Z,94896.60
2022-11-12T19:20:46.359Z,94892.55
2022-11-12T19:25:53.788Z,94892.67
2022-11-12T19:31:09.384Z,94895.16
2022-11-12T19:36:21.324Z,94895.16
2022-11-12T19:41:28.570Z,94889.64
2022-11-12T19:46:35.530Z,94890.61
2022-11-12T19:51:42.451Z,94887.97
2022-11-12T19:56:49.285Z,94879.66
2022-11-12T20:01:56.085Z,94869.18
2022-11-12T20:07:03.216Z,94868.16
2022-11-12T20:12:10.745Z,94865.92
2022-11-12T20:17:17.618Z,94862.70
2022-11-12T20:22:27.957Z,94861.20
2022-11-12T20:27:33.125Z,94861.05
2022-11-12T20:32:40.012Z,94859.44
2022-11-12T20:37:47.215Z,94855.15
2022-11-12T20:42:54.211Z,94854.30
2022-11-12T20:48:01.374Z,94856.50
2022-11-12T20:53:08.493Z,94857.00
2022-11-12T20:58:15.767Z,94856.67
2022-11-12T21:03:25.399Z,94852.45
2022-11-12T21:08:34.603Z,94861.41
2022-11-12T21:13:43.306Z,94864.58
2022-11-12T21:18:50.602Z,94858.61
2022-11-12T21:24:02.023Z,94855.33
2022-11-12T21:29:07.469Z,94861.25
2022-11-12T21:34:15.135Z,94853.10
2022-11-12T21:39:21.943Z,94864.77
2022-11-12T21:44:28.891Z,94868.50
2022-11-12T21:49:36.056Z,94867.52
2022-11-12T21:54:42.982Z,94864.54
2022-11-12T21:59:49.951Z,94858.89
2022-11-12T22:04:56.763Z,94865.67
2022-11-12T22:10:03.618Z,94857.44
2022-11-12T22:15:11.334Z,94860.23
2022-11-12T22:20:18.488Z,94861.83
2022-11-12T22:25:25.241Z,94859.88
2022-11-12T22:30:32.722Z,94856.08
2022-11-12T22:35:39.582Z,94862.32
2022-11-12T22:40:46.609Z,94851.70
2022-11-12T22:45:53.459Z,94843.14
2022-11-12T22:51:05.870Z,94846.13
2022-11-12T22:56:16.830Z,94848.30
2022-11-12T23:01:27.677Z,94839.67
2022-11-12T23:06:35.295Z,94834.61
2022-11-12T23:11:42.475Z,94837.45
2022-11-12T23:16:50.007Z,94840.61
2022-11-12T23:21:57.157Z,94848.58
2022-11-12T23:27:04.194Z,94847.45
2022-11-12T23:32:11.232Z,94844.92
2022-11-12T23:37:18.198Z,94838.36
2022-11-12T23:42:25.088Z,94840.37
2022-11-12T23:47:31.851Z,94833.91
2022-11-12T23:52:38.777Z,94825.81
2022-11-12T23:57:45.574Z,94818.52
